Wynne, AR

12:53 PM CST on February 13, 2016 (GMT -0600)
South Edmonds - MacTown | | Change Station
CLOSE
Current Station
Personal Weather Station
Location: McCrory, AR
Elevation: 207 ft
Nearby Weather Stations

Elev 207 ft 35.27 °N, 91.20 °W | Updated 8 seconds ago

Partly Cloudy
Partly Cloudy
32.4 °F
Feels Like 29 °F
N
4.0
Wind Variable Wind from NE
Gusts 4.9 mph

Today
High -- | Low -- °F
--% Chance of Precip.
Yesterday
High -- | Low -- °F
Precip. -- in
Pressure 30.57 in
Visibility 10.0 miles
Clouds Clear
Windchill 29 °F
Dew Point 8 °F
Humidity 35%
Rainfall 0.00 in
Snow Depth Not available.
6:51 AM 5:43 PM
Waxing Crescent, 33% visible
METAR KAWM 131753Z AUTO 04008KT 10SM CLR 01/M11 A3056 RMK AO2 SLP351 T00111106 10011 21039 58009
Pressure 30.57 in
Visibility 10.0 miles
Clouds Clear
Windchill 29 °F
Dew Point 8 °F
Humidity 35%
Rainfall 0.00 in
Snow Depth Not available.
6:51 AM 5:43 PM
Waxing Crescent, 33% visible
METAR KAWM 131753Z AUTO 04008KT 10SM CLR 01/M11 A3056 RMK AO2 SLP351 T00111106 10011 21039 58009

10-Day Weather Forecast

Almanac

Astronomy

Feb. 13, 2016 Rise Set
Actual Time
Civil Twilight
Nautical Twilight
Astronomical Twilight
Moon
Length of Visible Light
Length of Day
Tomorrow will be .
, % of the Moon is Illuminated

Today's Extremes

State Highs State Lows

Community

WunderPhotos

Upload Photos

1,892,633 photos uploaded!

WunderBlog® & News

Nearby

Air Quality

  Air Quality AQ Index Pollutant
Not available.

Snow Depth

Station Depth Elevation

Earthquake Activity

City Distance Mag. Time & Date
Minimum magnitude displayed is 2.5.

Coastal Water Temperatures

Place Temperature

Stations

Nearby Weather Stations

Station Location Temp. Windchill Dew Point Humidity Wind Precip. Elev Updated Type
                   

Watches & Warnings

There are currently no watches in effect.